Dauphin, Canada
Current Conditions -  °F | °C
As of 5:00 AM on Monday 20 Oct 2014 (Local Time) from CYDN Reporting Station
Clear Clear  
Wind Chill: 30°   Ceiling: Unl
Heat Index: 30°   Visibility: 9mi
Dew Point: 28°   Wind: 3mph
Humidity: 93%   Direction: 150°SSE
Pressure: 30"   Gusts: NA
Location:  51.15°N, 100.05°W
Report Text: CYDN 201000Z AUTO 15003KT 150V210 9SM CLR M01/M02 A3000 RMK SLP169
Loading
Personal Weather Stations






























Interactive Weather Map
Tropical Storm Tracking
New forecast layout! Learn more

10-Day Weather Forecast

Advertisements
Track Severe Weather on mobile